Pebble, Idaho
Current Conditions -  °F | °C
As of 10:53 PM on Monday 20 Oct 2014 (Local Time) from KPIH Reporting Station
Light Rain Light Rain  
Wind Chill: 67°   Ceiling: Unl
Heat Index: 67°   Visibility: 10mi
Dew Point: 34°   Wind: 14mph
Humidity: 30%   Direction: 170°S
Pressure: 29.85"   Gusts: NA
Location:  42.811°N, 111.938°W
Report Text: KPIH 210453Z AUTO 17012KT 10SM -RA FEW120 19/01 A2985 RMK AO2 RAB0354 SLP070 P0000 T01940011
Loading
Personal Weather Stations






























Interactive Weather Map
Tropical Storm Tracking
New forecast layout! Learn more

10-Day Weather Forecast

Advertisements
Track Severe Weather on mobile